createdAt,value
2022-11-24T00:01:08.324Z,100025.59
2022-11-24T00:04:13.043Z,100019.56
2022-11-24T00:07:14.609Z,100018.81
2022-11-24T00:10:16.402Z,100011.06
2022-11-24T00:13:17.909Z,100015.69
2022-11-24T00:16:21.120Z,100024.56
2022-11-24T00:19:23.500Z,100021.25
2022-11-24T00:22:25.209Z,100025.78
2022-11-24T00:25:26.776Z,100022.38
2022-11-24T00:28:28.306Z,100035.88
2022-11-24T00:31:32.355Z,100026.41
2022-11-24T00:34:34.258Z,100036.31
2022-11-24T00:37:36.201Z,100033.00
2022-11-24T00:40:37.800Z,100036.75
2022-11-24T00:43:39.902Z,100037.03
2022-11-24T00:46:41.570Z,100024.94
2022-11-24T00:49:43.223Z,100035.00
2022-11-24T00:52:44.761Z,100046.75
2022-11-24T00:55:50.091Z,100047.03
2022-11-24T00:58:51.847Z,100056.06
2022-11-24T01:01:53.474Z,100060.66
2022-11-24T01:04:55.031Z,100055.66
2022-11-24T01:07:56.593Z,100064.59
2022-11-24T01:11:16.027Z,100062.88
2022-11-24T01:14:18.426Z,100059.59
2022-11-24T01:17:20.076Z,100068.53
2022-11-24T01:20:21.674Z,100063.50
2022-11-24T01:23:23.226Z,100072.50
2022-11-24T01:26:24.801Z,100075.31
2022-11-24T01:29:26.345Z,100078.97
2022-11-24T01:32:28.090Z,100080.84
2022-11-24T01:35:29.614Z,100083.47
2022-11-24T01:38:31.699Z,100084.44
2022-11-24T01:41:34.392Z,100082.56
2022-11-24T01:44:36.241Z,100076.28
2022-11-24T01:47:43.583Z,100083.06
2022-11-24T01:50:48.118Z,100084.69
2022-11-24T01:53:55.735Z,100085.38
2022-11-24T01:57:29.833Z,100085.19
2022-11-24T02:00:32.596Z,100079.84
2022-11-24T02:03:38.283Z,100087.59
2022-11-24T02:06:43.550Z,100084.75
2022-11-24T02:10:02.463Z,100091.59
2022-11-24T02:13:05.315Z,100097.63
2022-11-24T02:16:08.825Z,100104.41
2022-11-24T02:19:23.315Z,100100.75
2022-11-24T02:22:40.608Z,100099.72
2022-11-24T02:25:59.104Z,100111.09
2022-11-24T02:29:00.716Z,100108.34
2022-11-24T02:32:07.045Z,100109.09
2022-11-24T02:35:10.474Z,100115.06
2022-11-24T02:38:13.659Z,100123.66
2022-11-24T02:41:20.107Z,100127.91
2022-11-24T02:44:27.925Z,100130.47
2022-11-24T02:47:29.460Z,100135.56
2022-11-24T02:50:31.012Z,100138.91
2022-11-24T02:53:32.749Z,100145.78
2022-11-24T02:56:34.323Z,100153.53
2022-11-24T02:59:35.831Z,100160.44
2022-11-24T03:02:37.403Z,100161.19
2022-11-24T03:05:39.050Z,100156.78
2022-11-24T03:08:40.634Z,100155.75
2022-11-24T03:11:42.399Z,100155.66
2022-11-24T03:14:43.904Z,100154.72
2022-11-24T03:17:45.456Z,100163.47
2022-11-24T03:20:47.038Z,100168.69
2022-11-24T03:23:48.764Z,100163.41
2022-11-24T03:26:50.339Z,100168.59
2022-11-24T03:29:51.888Z,100173.88
2022-11-24T03:32:53.898Z,100178.22
2022-11-24T03:35:55.572Z,100174.63
2022-11-24T03:38:57.125Z,100176.44
2022-11-24T03:41:58.665Z,100178.28
2022-11-24T03:45:11.783Z,100171.34
2022-11-24T03:48:21.856Z,100175.84
2022-11-24T03:51:23.449Z,100182.16
2022-11-24T03:54:25.062Z,100190.25
2022-11-24T03:57:26.569Z,100193.06
2022-11-24T04:00:28.374Z,100194.94
2022-11-24T04:03:30.047Z,100194.25
2022-11-24T04:06:31.694Z,100198.00
2022-11-24T04:09:33.272Z,100198.28
2022-11-24T04:12:44.061Z,100200.31
2022-11-24T04:15:46.036Z,100208.41
2022-11-24T04:18:47.663Z,100208.56
2022-11-24T04:21:49.822Z,100210.44
2022-11-24T04:24:51.380Z,100224.59
2022-11-24T04:27:54.940Z,100219.47
2022-11-24T04:31:02.365Z,100227.66
2022-11-24T04:34:04.045Z,100229.44
2022-11-24T04:37:05.699Z,100225.16
2022-11-24T04:40:09.084Z,100221.66
2022-11-24T04:43:10.954Z,100228.81
2022-11-24T04:46:12.558Z,100233.25
2022-11-24T04:49:14.164Z,100235.88
2022-11-24T04:52:17.443Z,100231.53
2022-11-24T04:55:19.048Z,100235.13
2022-11-24T04:58:20.586Z,100234.25
2022-11-24T05:01:22.307Z,100240.31
2022-11-24T05:04:23.950Z,100240.41
2022-11-24T05:07:25.622Z,100242.09
2022-11-24T05:10:37.320Z,100250.78
2022-11-24T05:13:38.854Z,100256.91
2022-11-24T05:16:40.824Z,100253.34
2022-11-24T05:19:42.412Z,100266.38
2022-11-24T05:22:44.612Z,100273.34
2022-11-24T05:25:47.830Z,100277.72
2022-11-24T05:28:49.579Z,100276.78
2022-11-24T05:31:51.157Z,100274.22
2022-11-24T05:34:53.976Z,100280.34
2022-11-24T05:37:55.539Z,100285.63
2022-11-24T05:41:06.447Z,100295.25
2022-11-24T05:44:08.137Z,100282.97
2022-11-24T05:47:09.676Z,100293.22
2022-11-24T05:50:13.595Z,100291.47
2022-11-24T05:53:15.133Z,100307.28
2022-11-24T05:56:16.655Z,100311.81
2022-11-24T05:59:18.207Z,100311.59
2022-11-24T06:02:19.889Z,100308.09
2022-11-24T06:05:21.824Z,100309.91
2022-11-24T06:08:28.112Z,100308.91
2022-11-24T06:11:32.325Z,100316.22
2022-11-24T06:14:34.690Z,100315.75
2022-11-24T06:17:36.478Z,100321.34
2022-11-24T06:20:38.081Z,100321.72
2022-11-24T06:23:40.345Z,100327.19
2022-11-24T06:26:41.899Z,100339.81
2022-11-24T06:29:43.529Z,100336.47
2022-11-24T06:32:49.353Z,100340.13
2022-11-24T06:35:51.611Z,100337.69
2022-11-24T06:38:53.543Z,100347.47
2022-11-24T06:41:55.114Z,100345.88
2022-11-24T06:44:56.652Z,100358.22
2022-11-24T06:47:58.234Z,100359.25
2022-11-24T06:51:05.035Z,100363.31
2022-11-24T06:54:07.748Z,100360.03
2022-11-24T06:57:09.295Z,100367.25
2022-11-24T07:00:11.364Z,100377.22
2022-11-24T07:03:16.817Z,100378.44
2022-11-24T07:06:19.732Z,100380.47
2022-11-24T07:09:21.275Z,100392.06
2022-11-24T07:12:24.231Z,100399.28
2022-11-24T07:15:26.192Z,100403.69
2022-11-24T07:18:27.729Z,100409.13
2022-11-24T07:21:30.820Z,100416.28
2022-11-24T07:24:32.709Z,100422.53
2022-11-24T07:27:34.416Z,100428.75
2022-11-24T07:30:35.947Z,100424.41
2022-11-24T07:33:38.068Z,100438.44
2022-11-24T07:36:39.609Z,100432.38
2022-11-24T07:39:41.142Z,100440.47
2022-11-24T07:42:42.687Z,100452.03
2022-11-24T07:45:44.255Z,100459.19
2022-11-24T07:48:46.674Z,100461.06
2022-11-24T07:51:48.720Z,100470.09
2022-11-24T07:54:50.270Z,100477.31
2022-11-24T07:57:51.794Z,100473.03
2022-11-24T08:00:53.323Z,100479.44
2022-11-24T08:03:54.913Z,100491.06
2022-11-24T08:06:56.458Z,100488.59
2022-11-24T08:09:58.000Z,100498.34
2022-11-24T08:13:02.744Z,100493.16
2022-11-24T08:16:09.612Z,100503.72
2022-11-24T08:19:12.061Z,100496.66
2022-11-24T08:22:13.760Z,100496.66
2022-11-24T08:25:15.375Z,100504.50
2022-11-24T08:28:17.073Z,100497.97
2022-11-24T08:31:19.240Z,100500.69
2022-11-24T08:34:20.848Z,100504.72
2022-11-24T08:37:22.376Z,100502.69
2022-11-24T08:40:23.964Z,100507.75
2022-11-24T08:43:25.556Z,100504.84
2022-11-24T08:46:27.311Z,100505.47
2022-11-24T08:49:29.381Z,100511.38
2022-11-24T08:52:31.174Z,100512.94
2022-11-24T08:55:32.729Z,100515.25
2022-11-24T08:58:34.760Z,100517.66
2022-11-24T09:01:36.423Z,100520.97
2022-11-24T09:04:38.497Z,100521.59
2022-11-24T09:07:40.392Z,100524.00
2022-11-24T09:10:42.145Z,100523.75
2022-11-24T09:13:44.060Z,100527.00
2022-11-24T09:16:45.665Z,100538.13
2022-11-24T09:19:47.240Z,100541.28
2022-11-24T09:22:48.848Z,100537.31
2022-11-24T09:25:50.382Z,100539.47
2022-11-24T09:28:56.460Z,100543.47
2022-11-24T09:32:03.503Z,100548.34
2022-11-24T09:35:08.236Z,100554.06
2022-11-24T09:38:10.368Z,100559.81
2022-11-24T09:41:19.932Z,100560.81
2022-11-24T09:44:30.635Z,100554.03
2022-11-24T09:48:11.322Z,100566.09
2022-11-24T09:51:15.710Z,100565.97
2022-11-24T09:54:22.239Z,100564.97
2022-11-24T09:57:26.729Z,100567.44
2022-11-24T10:00:30.112Z,100567.16
2022-11-24T10:03:39.310Z,100567.00
2022-11-24T10:06:48.143Z,100572.88
2022-11-24T10:10:03.635Z,100585.84
2022-11-24T10:13:15.308Z,100577.75
2022-11-24T10:16:47.828Z,100588.06
2022-11-24T10:20:05.751Z,100585.25
2022-11-24T10:23:44.997Z,100582.38
2022-11-24T10:27:11.734Z,100591.94
2022-11-24T10:30:24.090Z,100600.50
2022-11-24T10:33:30.885Z,100605.44
2022-11-24T10:36:43.119Z,100608.50
2022-11-24T10:40:21.300Z,100599.34
2022-11-24T10:43:32.307Z,100599.69
2022-11-24T10:46:39.193Z,100608.97
2022-11-24T10:49:41.817Z,100605.00
2022-11-24T10:52:47.873Z,100608.22
2022-11-24T10:55:58.288Z,100603.50
2022-11-24T10:59:19.757Z,100611.06
2022-11-24T11:02:35.809Z,100617.72
2022-11-24T11:05:43.207Z,100620.84
2022-11-24T11:08:44.740Z,100618.66
2022-11-24T11:11:49.472Z,100630.59
2022-11-24T11:14:50.964Z,100626.84
2022-11-24T11:17:57.519Z,100627.28
2022-11-24T11:21:04.646Z,100622.47
2022-11-24T11:24:16.793Z,100634.59
2022-11-24T11:27:18.271Z,100638.00
2022-11-24T11:34:03.710Z,100648.72
2022-11-24T11:37:08.805Z,100648.41
2022-11-24T11:40:18.081Z,100660.47
2022-11-24T11:43:28.623Z,100657.63
2022-11-24T11:46:32.593Z,100664.72
2022-11-24T11:49:38.293Z,100670.03
2022-11-24T11:52:54.886Z,100670.97
2022-11-24T11:56:09.672Z,100676.41
2022-11-24T11:59:29.579Z,100680.22
2022-11-24T12:02:53.794Z,100677.63
2022-11-24T12:06:05.096Z,100681.25
2022-11-24T12:09:45.235Z,100675.94
2022-11-24T12:12:48.062Z,100689.28
2022-11-24T12:15:52.495Z,100694.59
2022-11-24T12:19:24.797Z,100692.81
2022-11-24T12:22:41.668Z,100694.59
2022-11-24T12:25:57.039Z,100698.13
2022-11-24T12:29:26.300Z,100697.25
2022-11-24T12:32:59.937Z,100703.53
2022-11-24T12:36:20.184Z,100698.47
2022-11-24T12:39:33.092Z,100704.75
2022-11-24T12:42:40.665Z,100705.69
2022-11-24T12:45:57.364Z,100703.91
2022-11-24T12:49:20.633Z,100708.34
2022-11-24T12:52:32.281Z,100714.63
2022-11-24T12:55:34.203Z,100726.13
2022-11-24T12:58:52.804Z,100735.66
2022-11-24T13:02:11.470Z,100748.94
2022-11-24T13:05:13.035Z,100752.56
2022-11-24T13:08:16.027Z,100748.94
2022-11-24T13:11:23.620Z,100757.75
2022-11-24T13:14:34.001Z,100763.94
2022-11-24T13:17:51.059Z,100755.97
2022-11-24T13:20:58.824Z,100757.88
2022-11-24T13:24:06.192Z,100762.22
2022-11-24T13:27:13.492Z,100761.28
2022-11-24T13:30:33.022Z,100756.72
2022-11-24T13:33:35.478Z,100765.44
2022-11-24T13:36:53.666Z,100768.88
2022-11-24T13:40:22.540Z,100769.66
2022-11-24T13:43:24.192Z,100771.34
2022-11-24T13:47:06.591Z,100767.63
2022-11-24T13:50:21.552Z,100758.84
2022-11-24T13:53:32.924Z,100758.84
2022-11-24T13:56:34.497Z,100754.47
2022-11-24T13:59:36.266Z,100765.09
2022-11-24T14:02:37.993Z,100770.41
2022-11-24T14:05:47.283Z,100777.63
2022-11-24T14:08:49.189Z,100784.81
2022-11-24T14:12:19.101Z,100785.28
2022-11-24T14:15:24.979Z,100786.03
2022-11-24T14:18:29.179Z,100789.75
2022-11-24T14:21:37.732Z,100781.13
2022-11-24T14:24:41.786Z,100784.03
2022-11-24T14:27:43.459Z,100797.53
2022-11-24T14:30:45.035Z,100796.94
2022-11-24T14:33:46.578Z,100807.75
2022-11-24T14:36:49.420Z,100805.28
2022-11-24T14:39:51.000Z,100810.00
2022-11-24T14:42:52.593Z,100819.97
2022-11-24T14:45:57.729Z,100814.84
2022-11-24T14:48:59.444Z,100804.09
2022-11-24T14:52:04.410Z,100807.97
2022-11-24T14:55:22.504Z,100814.25
2022-11-24T14:58:36.508Z,100815.94
2022-11-24T15:01:40.698Z,100811.91
2022-11-24T15:05:04.759Z,100811.56
2022-11-24T15:08:06.496Z,100814.53
2022-11-24T15:11:08.094Z,100820.41
2022-11-24T15:14:42.196Z,100828.31
2022-11-24T15:17:59.778Z,100822.53
2022-11-24T15:21:02.191Z,100827.00
2022-11-24T15:24:18.264Z,100834.47
2022-11-24T15:27:19.813Z,100831.19
2022-11-24T15:30:21.384Z,100836.59
2022-11-24T15:33:23.635Z,100839.25
2022-11-24T15:36:25.196Z,100844.44
2022-11-24T15:39:26.703Z,100834.50
2022-11-24T15:42:28.223Z,100846.50
2022-11-24T15:45:29.746Z,100849.44
2022-11-24T15:48:31.494Z,100851.41
2022-11-24T15:51:33.902Z,100855.88
2022-11-24T15:54:36.453Z,100859.66
2022-11-24T15:57:38.144Z,100875.50
2022-11-24T16:00:40.600Z,100878.94
2022-11-24T16:03:47.291Z,100867.41
2022-11-24T16:06:49.268Z,100873.63
2022-11-24T16:09:50.806Z,100879.69
2022-11-24T16:12:52.390Z,100884.69
2022-11-24T16:15:54.059Z,100889.81
2022-11-24T16:18:55.860Z,100897.38
2022-11-24T16:21:57.453Z,100902.16
2022-11-24T16:24:58.960Z,100910.38
2022-11-24T16:28:00.493Z,100917.75
2022-11-24T16:31:02.062Z,100915.50
2022-11-24T16:34:03.768Z,100924.81
2022-11-24T16:37:05.298Z,100919.81
2022-11-24T16:40:07.432Z,100923.72
2022-11-24T16:43:09.313Z,100937.34
2022-11-24T16:46:22.140Z,100932.44
2022-11-24T16:49:23.892Z,100937.19
2022-11-24T16:52:25.460Z,100932.97
2022-11-24T16:55:27.050Z,100941.06
2022-11-24T16:58:28.822Z,100945.63
2022-11-24T17:01:30.566Z,100941.50
2022-11-24T17:04:32.581Z,100938.22
2022-11-24T17:07:34.359Z,100934.78
2022-11-24T17:10:38.751Z,100936.63
2022-11-24T17:13:40.643Z,100941.97
2022-11-24T17:16:42.375Z,100930.50
2022-11-24T17:19:44.097Z,100935.81
2022-11-24T17:22:45.632Z,100936.66
2022-11-24T17:25:48.431Z,100932.25
2022-11-24T17:28:50.018Z,100928.69
2022-11-24T17:31:51.650Z,100936.63
2022-11-24T17:34:53.224Z,100941.09
2022-11-24T17:37:57.024Z,100951.00
2022-11-24T17:40:58.922Z,100950.13
2022-11-24T17:44:00.509Z,100944.13
2022-11-24T17:47:02.082Z,100955.78
2022-11-24T17:50:03.870Z,100954.06
2022-11-24T17:53:05.456Z,100955.00
2022-11-24T17:56:08.259Z,100955.00
2022-11-24T17:59:09.866Z,100949.72
2022-11-24T18:02:11.525Z,100952.31
2022-11-24T18:05:13.196Z,100956.75
2022-11-24T18:08:14.892Z,100949.03
2022-11-24T18:11:25.908Z,100958.16
2022-11-24T18:14:30.745Z,100952.34
2022-11-24T18:17:32.314Z,100952.59
2022-11-24T18:20:33.910Z,100951.06
2022-11-24T18:23:35.991Z,100951.50
2022-11-24T18:26:39.082Z,100951.03
2022-11-24T18:29:40.660Z,100961.97
2022-11-24T18:32:42.171Z,100955.03
2022-11-24T18:35:44.033Z,100953.47
2022-11-24T18:38:45.743Z,100962.53
2022-11-24T18:41:47.413Z,100969.78
2022-11-24T18:44:52.732Z,100957.69
2022-11-24T18:47:55.646Z,100954.66
2022-11-24T18:50:57.371Z,100954.22
2022-11-24T18:53:59.164Z,100951.78
2022-11-24T18:57:03.578Z,100960.69
2022-11-24T19:00:07.447Z,100958.28
2022-11-24T19:03:09.475Z,100953.41
2022-11-24T19:06:26.938Z,100951.09
2022-11-24T19:09:28.459Z,100954.84
2022-11-24T19:12:30.211Z,100951.69
2022-11-24T19:15:34.148Z,100947.59
2022-11-24T19:18:35.708Z,100955.72
2022-11-24T19:21:39.282Z,100945.41
2022-11-24T19:24:41.573Z,100953.44
2022-11-24T19:27:43.127Z,100960.53
2022-11-24T19:30:45.393Z,100964.00
2022-11-24T19:33:47.059Z,100967.56
2022-11-24T19:36:48.675Z,100966.78
2022-11-24T19:39:50.384Z,100973.19
2022-11-24T19:42:51.964Z,100983.06
2022-11-24T19:45:53.580Z,100972.91
2022-11-24T19:48:57.353Z,100972.53
2022-11-24T19:51:58.918Z,100978.31
2022-11-24T19:55:00.463Z,100990.81
2022-11-24T19:58:01.987Z,100990.94
2022-11-24T20:01:07.635Z,100994.63
2022-11-24T20:04:14.917Z,100992.22
2022-11-24T20:07:16.788Z,100995.03
2022-11-24T20:10:18.495Z,101003.88
2022-11-24T20:13:20.059Z,101004.84
2022-11-24T20:16:32.342Z,101010.84
2022-11-24T20:19:33.989Z,101003.75
2022-11-24T20:22:35.533Z,101004.56
2022-11-24T20:25:37.948Z,101009.75
2022-11-24T20:28:39.931Z,101011.53
2022-11-24T20:31:53.811Z,101010.66
2022-11-24T20:34:55.502Z,101011.59
2022-11-24T20:37:57.741Z,101020.41
2022-11-24T20:41:09.350Z,101017.84
2022-11-24T20:44:15.186Z,101023.19
2022-11-24T20:47:16.711Z,101025.84
2022-11-24T20:50:18.247Z,101025.84
2022-11-24T20:53:19.820Z,101021.53
2022-11-24T20:56:27.085Z,101019.81
2022-11-24T20:59:28.647Z,101027.78
2022-11-24T21:02:30.195Z,101029.47
2022-11-24T21:05:31.769Z,101021.56
2022-11-24T21:08:35.904Z,101025.97
2022-11-24T21:11:38.936Z,101019.00
2022-11-24T21:14:40.937Z,101031.31
2022-11-24T21:17:42.603Z,101020.66
2022-11-24T21:20:44.636Z,101025.06
2022-11-24T21:23:46.842Z,101018.13
2022-11-24T21:26:49.160Z,101020.88
2022-11-24T21:29:50.694Z,101025.28
2022-11-24T21:32:52.259Z,101019.19
2022-11-24T21:35:53.775Z,101016.56
2022-11-24T21:38:59.003Z,101024.47
2022-11-24T21:42:00.620Z,101029.19
2022-11-24T21:45:02.403Z,101027.16
2022-11-24T21:48:04.059Z,101022.75
2022-11-24T21:51:08.388Z,101015.78
2022-11-24T21:54:09.901Z,101011.50
2022-11-24T21:57:11.533Z,101016.00
2022-11-24T22:00:13.884Z,101012.66
2022-11-24T22:03:15.476Z,101008.28
2022-11-24T22:06:19.291Z,101011.00
2022-11-24T22:09:21.010Z,101012.78
2022-11-24T22:12:22.534Z,101008.56
2022-11-24T22:15:24.075Z,101012.25
2022-11-24T22:18:25.597Z,101012.38
2022-11-24T22:21:33.610Z,101031.00
2022-11-24T22:24:35.156Z,101023.22
2022-11-24T22:27:36.712Z,101016.53
2022-11-24T22:30:38.230Z,101019.38
2022-11-24T22:33:40.508Z,101016.81
2022-11-24T22:36:42.067Z,101022.19
2022-11-24T22:39:43.627Z,101017.91
2022-11-24T22:42:45.671Z,101009.19
2022-11-24T22:45:47.307Z,101011.94
2022-11-24T22:48:50.116Z,101012.91
2022-11-24T22:51:51.700Z,101011.19
2022-11-24T22:54:53.305Z,101005.97
2022-11-24T22:57:57.098Z,101017.31
2022-11-24T23:01:20.138Z,101007.53
2022-11-24T23:04:21.752Z,101001.50
2022-11-24T23:07:23.392Z,100999.00
2022-11-24T23:10:25.003Z,100993.75
2022-11-24T23:13:26.604Z,100987.63
2022-11-24T23:16:29.233Z,100994.19
2022-11-24T23:19:30.906Z,100985.41
2022-11-24T23:22:32.452Z,100980.22
2022-11-24T23:25:34.495Z,100988.28
2022-11-24T23:28:37.307Z,100984.09
2022-11-24T23:31:42.123Z,100986.00
2022-11-24T23:34:43.758Z,100982.50
2022-11-24T23:38:06.567Z,100977.22
2022-11-24T23:41:11.090Z,100983.38
2022-11-24T23:44:12.611Z,100979.88
2022-11-24T23:47:14.131Z,100970.22
2022-11-24T23:50:15.660Z,100973.84
2022-11-24T23:53:17.208Z,100964.28
2022-11-24T23:56:21.748Z,100969.59
2022-11-24T23:59:23.462Z,100977.53
